Tiempo atmosférico en la estación meteorológica de Pola de Lena, Asturias (370 m.)



Fecha
DESCASC
Temp. máxima en grados centígrados (hora)
DESCASC
Temp. mínima en grados centígrados (hora)
DESCASC
Temp. media en grados centígrados
DESCASC
Racha de viento máxima en m/sg (hora)
DESCASC
Velocidad máxima media en intervalos de 10 minutos(hora)
DESCASC
Precipitaciones diarias en mm
DESCASC
Precipitaciones de 00:00 a 06:00 en mm
DESCASC
Precipitaciones de 06:00 a 12:00 en mm
DESCASC
Precipitaciones de 12:00 a 18:00 en mm
DESCASC
Precipitaciones de 18:00 a 24:00 en mm
DESCASC

Gráficas

Temp. máximas Temp. mínimas Temp. medias Precipitaciones Rachas de viento máximas Velocidades máximas media en intervalos de 10 minutos

Datos horarios

Fecha y hora oficial Temperatura (ºC) Velocidad del viento (km/h) Dirección del viento Racha (km/h) Dirección de racha Precipitación (mm) Presión (hPa) Tendencia (hPa) Humedad (%)
2020-01-24 23:00:00 4.6 0 Calma 5 Sur 0 -- -- 92
2020-01-24 22:00:00 5.4 0 Calma 4 Sudoeste 0 -- -- 89
2020-01-24 21:00:00 7 0 Calma 5 Sudeste 0 -- -- 83
2020-01-24 20:00:00 9.6 3 Sudoeste 13 Oeste 0 -- -- 75
2020-01-24 19:00:00 10.8 6 Oeste 12 Oeste 0 -- -- 69
2020-01-24 18:00:00 12 2 Sudeste 11 Noroeste 0 -- -- 62
2020-01-24 17:00:00 12.6 5 Sudoeste 13 Noroeste 0 -- -- 59
2020-01-24 16:00:00 13.3 7 Norte 15 Oeste 0 -- -- 58
2020-01-24 15:00:00 12.4 5 Norte 13 Norte 0 -- -- 61
2020-01-24 14:00:00 11.8 7 Norte 14 Norte 0 -- -- 68
2020-01-24 13:00:00 10.2 6 Norte 12 Norte 0 -- -- 79
2020-01-24 12:00:00 8 2 Norte 5 Norte 0 -- -- 89
2020-01-24 11:00:00 5.7 0 Calma 3 Sudeste 0 -- -- 99
2020-01-24 10:00:00 3.5 0 Calma 5 Este 0 -- -- 100
2020-01-24 09:00:00 2.2 0 Calma 4 Sudoeste 0 -- -- 99
2020-01-24 08:00:00 2.5 0 Calma 3 Nordeste 0 -- -- 98
2020-01-24 07:00:00 3.2 2 Norte 5 Este 0 -- -- 99
2020-01-24 06:00:00 2.7 2 Norte 3 Norte 0 -- -- 98
2020-01-24 05:00:00 2.5 0 Calma 3 Norte 0 -- -- 97
2020-01-24 04:00:00 3 0 Calma 2 Noroeste 0 -- -- 96
2020-01-24 03:00:00 3.3 0 Calma 2 Sudeste 0 -- -- 96
2020-01-24 02:00:00 3.7 0 Calma 8 Noroeste 0 -- -- 95
2020-01-24 01:00:00 4 2 Noroeste 8 Norte 0 -- -- 93
2020-01-24 00:00:00 4.6 2 Noroeste 11 Sudeste 0 -- -- 90
2020-01-23 23:00:00 4.2 0 Calma 8 Sur 0 -- -- 92
2020-01-23 22:00:00 4.7 4 Sur 8 Sur 0 -- -- 91
2020-01-23 21:00:00 5.2 0 Calma 8 Sudeste 0 -- -- 90
2020-01-23 20:00:00 6.1 0 Calma 10 Sudeste 0 -- -- 87
2020-01-23 19:00:00 7.4 3 Sudoeste 7 Oeste 0 -- -- 82
2020-01-23 18:00:00 9.8 3 Oeste 22 Norte 0 -- -- 73
2020-01-23 17:00:00 11.3 12 Norte 24 Noroeste 0 -- -- 66
2020-01-23 16:00:00 13.3 10 Sudeste 22 Sudeste 0 -- -- 52
2020-01-23 15:00:00 13.1 11 Sudeste 27 Sur 0 -- -- 53
2020-01-23 14:00:00 12.8 12 Sudeste 29 Sudeste 0 -- -- 57
2020-01-23 13:00:00 9.8 5 Sudeste 18 Sudeste 0 -- -- 71
2020-01-23 12:00:00 6.3 7 Sudeste 12 Sudeste 0 -- -- 89
2020-01-23 11:00:00 3.1 3 Norte 6 Norte 0 -- -- 99
2020-01-23 10:00:00 1 0 Calma 10 Sudeste 0 -- -- 100
2020-01-23 09:00:00 0.2 0 Calma 6 Sudeste 0 -- -- 100
2020-01-23 08:00:00 0.5 2 Sudeste 5 Este 0 -- -- 99
2020-01-23 07:00:00 1 0 Calma 5 Oeste 0 -- -- 99
2020-01-23 06:00:00 1.9 0 Calma 13 Sur 0 -- -- 97
2020-01-23 05:00:00 3.5 2 Sur 8 Sudoeste 0 -- -- 98
2020-01-23 04:00:00 3.7 0 Calma 6 Sudeste 0 -- -- 99
2020-01-23 03:00:00 3.9 5 Sur 15 Sur 0 -- -- 100
2020-01-23 02:00:00 3.8 5 Sudeste 9 Sudeste 0 -- -- 100
2020-01-23 01:00:00 3.2 0 Calma 6 Sur 0 -- -- 99
2020-01-23 00:00:00 4 2 Sur 5 Sudeste 0 -- -- 99
2020-01-22 23:00:00 4.7 3 Sudoeste 5 Sur 0.2 -- -- 98
2020-01-22 22:00:00 6 0 Calma 4 Sudeste 0 -- -- 98
2020-01-22 21:00:00 6.5 0 Calma 3 Este 0 -- -- 97
2020-01-22 20:00:00 6.8 0 Calma 4 Sur 0 -- -- 97
2020-01-22 19:00:00 7 0 Calma 8 Sudoeste 0 -- -- 95
2020-01-22 18:00:00 7.5 0 Calma 5 Oeste 0 -- -- 92
2020-01-22 17:00:00 7.7 4 Oeste 6 Oeste 0 -- -- 90
2020-01-22 16:00:00 7.9 2 Oeste 7 Noroeste 0 -- -- 90
2020-01-22 15:00:00 7.9 2 Oeste 8 Noroeste 0 -- -- 89
2020-01-22 14:00:00 7.9 3 Oeste 7 Norte 0 -- -- 90
2020-01-22 13:00:00 7.8 3 Oeste 10 Oeste 0 -- -- 92
2020-01-22 12:00:00 7.7 4 Noroeste 12 Norte 0 -- -- 93
2020-01-22 11:00:00 7.6 5 Norte 17 Norte 0.4 -- -- 94
2020-01-22 10:00:00 7.5 6 Norte 21 Norte 0.4 -- -- 94
2020-01-22 09:00:00 7.6 7 Noroeste 19 Norte 0 -- -- 93
2020-01-22 08:00:00 7.2 6 Norte 21 Norte 0.2 -- -- 95
2020-01-22 07:00:00 6.6 6 Norte 19 Noroeste 0 -- -- 97
2020-01-22 06:00:00 5.2 8 Noroeste 19 Oeste 0 -- -- 98
2020-01-22 05:00:00 4.1 4 Noroeste 10 Norte 0.2 -- -- 99
2020-01-22 04:00:00 4.2 4 Oeste 9 Oeste 0 -- -- 98
2020-01-22 03:00:00 4.2 0 Calma 6 Noroeste 0 -- -- 97
2020-01-22 02:00:00 4.3 0 Calma 4 Sur 0 -- -- 95
2020-01-22 01:00:00 4.4 0 Calma 5 Oeste 0 -- -- 93
2020-01-22 00:00:00 4.5 2 Sudoeste 5 Sur 0 -- -- 92
2020-01-21 23:00:00 4.4 0 Calma 6 Sur 0 -- -- 91
2020-01-21 22:00:00 4.4 2 Noroeste 6 Norte 0 -- -- 90
2020-01-21 21:00:00 4.7 0 Calma 6 Sudoeste 0 -- -- 86
2020-01-21 20:00:00 5.4 4 Oeste 8 Sudoeste 0 -- -- 82
2020-01-21 19:00:00 6.1 4 Noroeste 13 Norte 0 -- -- 80
2020-01-21 18:00:00 6.5 4 Norte 17 Noroeste 0 -- -- 77
2020-01-21 17:00:00 6.6 5 Norte 14 Norte 0 -- -- 78
2020-01-21 16:00:00 6.5 4 Norte 14 Norte 0 -- -- 79
2020-01-21 15:00:00 6.3 4 Noroeste 13 Norte 0 -- -- 80
2020-01-21 14:00:00 6 4 Norte 12 Norte 0 -- -- 82
2020-01-21 13:00:00 5.4 4 Norte 10 Oeste 0 -- -- 85
2020-01-21 12:00:00 4.6 0 Calma 10 Sudoeste 0 -- -- 91
2020-01-21 11:00:00 3.8 3 Norte 6 Norte 0 -- -- 95
2020-01-21 10:00:00 3.2 0 Calma 4 Norte 0 -- -- 96
2020-01-21 09:00:00 3 0 Calma 9 Oeste 0 -- -- 96
2020-01-21 08:00:00 3.1 3 Norte 7 Oeste 0 -- -- 95
2020-01-21 07:00:00 3 0 Calma 5 Sudoeste 0.2 -- -- 96
2020-01-21 06:00:00 3.1 2 Sur 4 Sur 0 -- -- 95
2020-01-21 05:00:00 3.3 0 Calma 8 Sudeste 0 -- -- 93
2020-01-21 04:00:00 3.5 0 Calma 7 Sudeste 0 -- -- 90
2020-01-21 03:00:00 3.5 0 Calma 4 Sur 0 -- -- 89
2020-01-21 02:00:00 3.6 3 Sur 6 Norte 0 -- -- 87
2020-01-21 01:00:00 3.8 2 Oeste 8 Noroeste 0 -- -- 83
2020-01-21 00:00:00 4 3 Noroeste 11 Norte 0 -- -- 80
2020-01-20 23:00:00 4 4 Noroeste 14 Norte 0 -- -- 79
2020-01-20 22:00:00 4.2 5 Norte 16 Norte 0 -- -- 77
2020-01-20 21:00:00 4.1 10 Norte 17 Norte 0 -- -- 78
2020-01-20 20:00:00 4 8 Norte 14 Norte 0 -- -- 81
2020-01-20 19:00:00 3.5 4 Noroeste 8 Noroeste 0 -- -- 86
2020-01-20 18:00:00 3.5 5 Noroeste 19 Norte 0 -- -- 86
2020-01-20 17:00:00 4.4 9 Norte 15 Norte 0 -- -- 82
2020-01-20 16:00:00 4.4 4 Norte 14 Sudoeste 0 -- -- 84
2020-01-20 15:00:00 4.7 11 Oeste 27 Oeste 0.2 -- -- 77
2020-01-20 14:00:00 5.5 6 Norte 32 Norte 0 -- -- 69
2020-01-20 13:00:00 5.8 19 Norte 31 Norte 0 -- -- 67
2020-01-20 12:00:00 4.4 10 Nordeste 38 Sudoeste 0.2 -- -- 75
2020-01-20 11:00:00 3.2 9 Sudoeste 27 Norte 0.4 -- -- 88
2020-01-20 10:00:00 3.9 12 Norte 28 Sudoeste 0 -- -- 80
2020-01-20 09:00:00 3.9 9 Nordeste 29 Nordeste 0 -- -- 81
2020-01-20 08:00:00 3.4 6 Sudoeste 20 Oeste 0.2 -- -- 87
2020-01-20 07:00:00 3.4 11 Oeste 31 Oeste 0.2 -- -- 85
2020-01-20 06:00:00 3.5 8 Oeste 29 Oeste 0 -- -- 84
2020-01-20 05:00:00 3.7 9 Norte 29 Sudoeste 0.4 -- -- 85
2020-01-20 04:00:00 4.1 10 Norte 33 Sudoeste 0 -- -- 82
2020-01-20 03:00:00 4.3 7 Norte 33 Oeste 0.2 -- -- 79
2020-01-20 02:00:00 4.5 13 Oeste 33 Oeste 0 -- -- 82
2020-01-20 01:00:00 4.3 10 Oeste 28 Nordeste 0.4 -- -- 85
2020-01-20 00:00:00 4.9 9 Norte 28 Norte 0 -- -- 76
2020-01-19 23:00:00 5.2 10 Norte 34 Sudoeste 0 -- -- 79
2020-01-19 22:00:00 5.4 12 Noroeste 38 Oeste 0 -- -- 76
2020-01-19 21:00:00 5.7 9 Norte 24 Norte 0 -- -- 73
2020-01-19 20:00:00 5.7 9 Norte 32 Nordeste 0 -- -- 71
2020-01-19 19:00:00 5.8 9 Norte 26 Noroeste 0 -- -- 71
2020-01-19 18:00:00 6.2 10 Norte 28 Norte 0 -- -- 68
2020-01-19 17:00:00 6.6 10 Norte 27 Oeste 0 -- -- 73
2020-01-19 16:00:00 6.9 9 Norte 39 Norte 0 -- -- 73
2020-01-19 15:00:00 7.7 15 Norte 31 Oeste 0 -- -- 72
2020-01-19 14:00:00 7.3 10 Norte 29 Norte 0 -- -- 79
2020-01-19 13:00:00 7.3 7 Norte 24 Nordeste 0 -- -- 80
2020-01-19 12:00:00 6.1 4 Sur 14 Norte 0.8 -- -- 89
2020-01-19 11:00:00 6.3 4 Norte 21 Norte 0 -- -- 82
2020-01-19 10:00:00 6.8 6 Norte 30 Norte 0 -- -- 82
2020-01-19 09:00:00 6.8 13 Norte 28 Norte 0 -- -- 83
2020-01-19 08:00:00 6.6 8 Norte 19 Nordeste 2 -- -- 85
2020-01-19 07:00:00 6.2 8 Nordeste 27 Nordeste 2 -- -- 92
2020-01-19 06:00:00 6.8 14 Norte 35 Norte 1.8 -- -- 90
2020-01-19 05:00:00 6.9 10 Norte 26 Norte 3.6 -- -- 98
2020-01-19 04:00:00 7 5 Norte 17 Norte 1.4 -- -- 100
2020-01-19 03:00:00 6.4 0 Calma 9 Sudoeste 1.6 -- -- 99
2020-01-19 02:00:00 6.2 0 Calma 4 Sur 0 -- -- 98
2020-01-19 01:00:00 6.2 0 Calma 5 Sudoeste 0.2 -- -- 97
2020-01-19 00:00:00 6.2 2 Sudeste 5 Nordeste 0 -- -- 97
2020-01-18 23:00:00 6.4 2 Noroeste 10 Sudeste 0 -- -- 95
2020-01-18 22:00:00 6.4 3 Sur 11 Sudeste 0 -- -- 95
2020-01-18 21:00:00 6.5 4 Sudeste 13 Sudeste 0 -- -- 95
2020-01-18 20:00:00 7.1 6 Sudeste 10 Sudeste 0.2 -- -- 93
2020-01-18 19:00:00 8.1 2 Noroeste 14 Noroeste 0 -- -- 94
2020-01-18 18:00:00 8.4 3 Sudoeste 19 Nordeste 0.6 -- -- 93
2020-01-18 17:00:00 9.2 6 Sudoeste 16 Sur 0.2 -- -- 92
2020-01-18 16:00:00 9.1 7 Sudoeste 43 Norte 3.6 -- -- 92
2020-01-18 15:00:00 13.4 19 Nordeste 41 Norte 0 -- -- 67
2020-01-18 14:00:00 13.3 17 Sur 42 Sudeste 0 -- -- 57
2020-01-18 13:00:00 14.2 14 Sudeste 46 Sur 0 -- -- 55
2020-01-18 12:00:00 13.7 21 Sur 50 Sudeste 0 -- -- 55
2020-01-18 11:00:00 13.2 23 Sudeste 51 Sudeste 0 -- -- 56
2020-01-18 10:00:00 11.5 21 Sudeste 43 Sudeste 0 -- -- 59
2020-01-18 09:00:00 10.3 22 Sur 46 Sur 0 -- -- 59
2020-01-18 08:00:00 10.7 21 Sudeste 48 Sudeste 0 -- -- 55
2020-01-18 07:00:00 10.7 21 Sudeste 44 Sudeste 0 -- -- 54
2020-01-18 06:00:00 10.8 20 Sudeste 50 Sudeste 0 -- -- 52
2020-01-18 05:00:00 9.2 12 Sudeste 30 Sudeste 0 -- -- 54
2020-01-18 04:00:00 4.9 0 Calma 8 Norte 0 -- -- 84
2020-01-18 03:00:00 4.9 0 Calma 5 Oeste 0 -- -- 83
2020-01-18 02:00:00 4.9 2 Sudoeste 4 Sur 0 -- -- 83
2020-01-18 01:00:00 5.1 2 Noroeste 12 Sudeste 0 -- -- 81
2020-01-18 00:00:00 4.8 5 Sur 9 Sur 0 -- -- 82
2020-01-17 23:00:00 4.8 0 Calma 7 Oeste 0 -- -- 81
2020-01-17 22:00:00 5.2 2 Sudoeste 12 Sudeste 0 -- -- 79
2020-01-17 21:00:00 5.2 4 Sudeste 8 Sudeste 0 -- -- 78
2020-01-17 20:00:00 6.2 0 Calma 7 Oeste 0 -- -- 72
2020-01-17 19:00:00 8.8 3 Noroeste 17 Oeste 0 -- -- 60
2020-01-17 18:00:00 9.8 6 Sudoeste 13 Sudoeste 0 -- -- 54
2020-01-17 17:00:00 11 3 Norte 14 Norte 0 -- -- 44
2020-01-17 16:00:00 11.3 6 Norte 13 Norte 0 -- -- 43
2020-01-17 15:00:00 11.8 7 Norte 20 Nordeste 0 -- -- 42
2020-01-17 14:00:00 12 8 Nordeste 20 Nordeste 0 -- -- 42
2020-01-17 13:00:00 11.4 6 Norte 13 Norte 0 -- -- 49
2020-01-17 12:00:00 8.8 2 Sudeste 11 Sur 0 -- -- 77
2020-01-17 11:00:00 5.8 7 Sur 12 Sur 0 -- -- 85
2020-01-17 10:00:00 4.5 5 Sudeste 12 Sur 0 -- -- 90
2020-01-17 09:00:00 3.9 5 Sur 12 Sur 0 -- -- 92
2020-01-17 08:00:00 5 5 Sur 12 Sudeste 0 -- -- 92
2020-01-17 07:00:00 5.8 5 Sur 10 Sur 0 -- -- 91
2020-01-17 06:00:00 7 2 Sudeste 12 Norte 0 -- -- 88
2020-01-17 05:00:00 7.1 2 Noroeste 7 Oeste 0 -- -- 85
2020-01-17 04:00:00 8.2 0 Calma 10 Noroeste 0 -- -- 78
2020-01-17 03:00:00 7.3 2 Norte 6 Este 0 -- -- 81
2020-01-17 02:00:00 10.1 3 Norte 16 Sur 0 -- -- 70
2020-01-17 01:00:00 11.7 8 Sur 22 Sur 0 -- -- 62
2020-01-17 00:00:00 11.2 11 Sur 26 Sudeste 0 -- -- 67
2020-01-16 23:00:00 12.6 15 Sur 31 Sur 0 -- -- 62
2020-01-16 22:00:00 12.6 9 Sur 20 Este 0 -- -- 63
2020-01-16 21:00:00 12.9 10 Sudeste 22 Sudeste 0 -- -- 64
2020-01-16 20:00:00 13.5 12 Sudeste 39 Sudeste 0 -- -- 62
2020-01-16 19:00:00 13.8 16 Este 35 Sudeste 0 -- -- 59
2020-01-16 18:00:00 14.3 19 Sudeste 35 Sudeste 0 -- -- 58
2020-01-16 17:00:00 15 12 Sudeste 28 Sudeste 0 -- -- 56
2020-01-16 16:00:00 15.4 14 Sudeste 32 Este 0 -- -- 54
2020-01-16 15:00:00 15.5 14 Sudeste 36 Sudeste 0 -- -- 56
2020-01-16 14:00:00 15.5 19 Sudeste 37 Este 0 -- -- 57
2020-01-16 13:00:00 14.9 16 Sudeste 41 Sudeste 0 -- -- 65
2020-01-16 12:00:00 15 27 Sudeste 43 Sudeste 0.2 -- -- 65
2020-01-16 11:00:00 14.7 10 Sudeste 39 Este 0 -- -- 67
2020-01-16 10:00:00 15.1 14 Sudeste 35 Sudeste 0 -- -- 60
2020-01-16 09:00:00 14.7 18 Sudeste 43 Sudeste 0 -- -- 65
2020-01-16 08:00:00 15 14 Sur 42 Sudeste 0 -- -- 64
2020-01-16 07:00:00 15.1 19 Sudeste 41 Sudeste 0 -- -- 63
2020-01-16 06:00:00 14.9 19 Sur 40 Sudeste 0 -- -- 63
2020-01-16 05:00:00 14.6 16 Sur 31 Sudeste 0 -- -- 59
2020-01-16 04:00:00 14.7 17 Sur 33 Sudeste 0 -- -- 59
2020-01-16 03:00:00 14.6 19 Sur 42 Sudeste 0 -- -- 66
2020-01-16 02:00:00 14.7 22 Sur 45 Sur 0 -- -- 65
2020-01-16 01:00:00 14.6 23 Sur 46 Sur 0 -- -- 65
2020-01-16 00:00:00 14.3 14 Sur 40 Sudeste 0 -- -- 63
2020-01-15 23:00:00 13.1 17 Sur 34 Este 0 -- -- 60
2020-01-15 22:00:00 13 15 Sudeste 32 Sur 0 -- -- 53
2020-01-15 21:00:00 8.2 5 Sur 16 Sur 0 -- -- 81
2020-01-15 20:00:00 7.2 3 Noroeste 8 Noroeste 0 -- -- 93
2020-01-15 19:00:00 8.5 0 Calma 15 Oeste 0 -- -- 88
2020-01-15 18:00:00 10.4 4 Oeste 20 Sudoeste 0 -- -- 86
2020-01-15 17:00:00 11.2 5 Oeste 25 Sudoeste 0 -- -- 83
2020-01-15 16:00:00 12.5 7 Oeste 27 Norte 0 -- -- 80
2020-01-15 15:00:00 14 9 Norte 21 Sudeste 0 -- -- 73
2020-01-15 14:00:00 15.7 6 Sudeste 24 Sudeste 0 -- -- 53
2020-01-15 13:00:00 13.6 6 Norte 20 Norte 0 -- -- 72
2020-01-15 12:00:00 11.7 3 Norte 13 Sudeste 0 -- -- 83
2020-01-15 11:00:00 10.7 5 Sur 24 Sudoeste 0.4 -- -- 86
2020-01-15 10:00:00 10.4 0 Calma 16 Sur 0.6 -- -- 88
2020-01-15 09:00:00 12.3 11 Sur 26 Sur 0 -- -- 71
2020-01-15 08:00:00 12.8 15 Sur 28 Sudeste 0 -- -- 66
2020-01-15 07:00:00 13.3 14 Sudeste 39 Sudeste 0 -- -- 63
2020-01-15 06:00:00 13.3 21 Sudeste 36 Este 0 -- -- 62
2020-01-15 05:00:00 13.1 17 Sudeste 30 Este 0 -- -- 63
2020-01-15 04:00:00 13.4 14 Sudeste 39 Sudeste 0 -- -- 60
2020-01-15 03:00:00 12.9 19 Sudeste 41 Este 0 -- -- 60
2020-01-15 02:00:00 12.6 21 Sur 41 Sur 0 -- -- 61
2020-01-15 01:00:00 12.6 25 Sur 48 Sur 0 -- -- 60
2020-01-15 00:00:00 12.4 27 Sur 50 Sur 0 -- -- 59
2020-01-14 23:00:00 12.1 22 Sudeste 44 Sudeste 0 -- -- 62
2020-01-14 22:00:00 12.1 17 Sudeste 33 Sudeste 0 -- -- 60
2020-01-14 21:00:00 12.1 12 Sur 35 Sudeste 0 -- -- 61
2020-01-14 20:00:00 12.1 18 Sur 50 Sur 0 -- -- 61
2020-01-14 19:00:00 12 28 Sur 49 Sudeste 0 -- -- 60
2020-01-14 18:00:00 12.1 27 Sur 58 Sur 0 -- -- 59
2020-01-14 17:00:00 12 27 Sur 50 Sur 0 -- -- 58
2020-01-14 16:00:00 11.7 26 Sudeste 59 Sudeste 0 -- -- 59
2020-01-14 15:00:00 12.3 26 Sudeste 58 Sudeste 0 -- -- 56
2020-01-14 14:00:00 13.3 23 Sur 56 Sudeste 0 -- -- 52
2020-01-14 13:00:00 13.1 22 Sudeste 50 Sudeste 0 -- -- 52
2020-01-14 12:00:00 11 26 Sudeste 49 Sudeste 0 -- -- 59
2020-01-14 11:00:00 12 14 Sudeste 50 Sudeste 0 -- -- 57
2020-01-14 10:00:00 12.2 18 Sudeste 49 Este 0 -- -- 57
2020-01-14 09:00:00 12.1 24 Sudeste 49 Sudeste 0 -- -- 57
2020-01-14 08:00:00 12.3 27 Sudeste 60 Sudeste 0 -- -- 57
2020-01-14 07:00:00 12.3 22 Sudeste 57 Sudeste 0 -- -- 57
2020-01-14 06:00:00 12.6 21 Sudeste 57 Sudeste 0 -- -- 54
2020-01-14 05:00:00 13.1 24 Sudeste 47 Sudeste 0 -- -- 53
2020-01-14 04:00:00 13.4 23 Sudeste 49 Sudeste 0 -- -- 51
2020-01-14 03:00:00 13.9 22 Sudeste 48 Sudeste 0 -- -- 49
2020-01-14 02:00:00 13.4 19 Sudeste 38 Sudeste 0 -- -- 49
2020-01-14 01:00:00 13.4 14 Sur 43 Sudeste 0 -- -- 46
2020-01-14 00:00:00 13.2 22 Sudeste 42 Sudeste 0 -- -- 48
2020-01-13 23:00:00 13.6 16 Sur 48 Sudeste 0 -- -- 46
2020-01-13 22:00:00 13.5 12 Sur 24 Sudoeste 0 -- -- 46
2020-01-13 21:00:00 13.1 14 Sudeste 25 Sur 0 -- -- 46
2020-01-13 20:00:00 13.7 14 Sur 27 Sudeste 0 -- -- 42
2020-01-13 19:00:00 14.3 14 Sur 44 Sur 0 -- -- 38
2020-01-13 18:00:00 14.9 15 Sur 37 Sur 0 -- -- 34
2020-01-13 17:00:00 15.3 12 Sudoeste 30 Sur 0 -- -- 30
2020-01-13 16:00:00 15 14 Sur 34 Sur 0 -- -- 31
2020-01-13 15:00:00 15 18 Sur 35 Sudeste 0 -- -- 34
2020-01-13 14:00:00 15.8 17 Sur 39 Sur 0 -- -- 36
2020-01-13 13:00:00 16.3 14 Sudeste 27 Sudeste 0 -- -- 33
2020-01-13 12:00:00 11.7 4 Sudeste 19 Sur 0 -- -- 59
2020-01-13 11:00:00 3.2 2 Sudeste 5 Sudeste 0 -- -- 89
2020-01-13 10:00:00 2.5 0 Calma 11 Sudeste 0 -- -- 88
2020-01-13 09:00:00 1.3 0 Calma 6 Sudeste 0 -- -- 90
2020-01-13 08:00:00 1 0 Calma 6 Norte 0 -- -- 90
2020-01-13 07:00:00 0.8 0 Calma 5 Sur 0 -- -- 90
2020-01-13 06:00:00 0.8 3 Sur 14 Sudeste 0 -- -- 90
2020-01-13 05:00:00 -0.1 0 Calma 3 Oeste 0 -- -- 92
2020-01-13 04:00:00 -0.2 0 Calma 3 Oeste 0 -- -- 92
2020-01-13 03:00:00 -0.3 0 Calma 4 Este 0 -- -- 93
2020-01-13 02:00:00 0.1 0 Calma 3 Sudoeste 0 -- -- 93
2020-01-13 01:00:00 0.4 0 Calma 5 Sudeste 0 -- -- 92
2020-01-13 00:00:00 0.8 0 Calma 5 Sudeste 0 -- -- 91
2020-01-12 23:00:00 1.6 0 Calma 6 Este 0 -- -- 91
2020-01-12 22:00:00 2.4 0 Calma 6 Sudeste 0 -- -- 88
2020-01-12 21:00:00 3.4 0 Calma 13 Sudeste 0 -- -- 84
2020-01-12 20:00:00 4.7 6 Sur 13 Sur 0 -- -- 82
2020-01-12 19:00:00 5.6 0 Calma 8 Sur 0 -- -- 78
2020-01-12 18:00:00 7.2 2 Sudoeste 5 Sudeste 0 -- -- 76
2020-01-12 17:00:00 10.5 4 Oeste 13 Sudoeste 0 -- -- 65
2020-01-12 16:00:00 12.2 8 Sudoeste 11 Oeste 0 -- -- 57
2020-01-12 15:00:00 12.9 4 Norte 6 Norte 0 -- -- 53
2020-01-12 14:00:00 11.3 5 Norte 7 Norte 0 -- -- 49
2020-01-12 13:00:00 8.2 0 Calma 3 Nordeste 0 -- -- 63
2020-01-12 12:00:00 5 2 Norte 4 Norte 0 -- -- 74
2020-01-12 11:00:00 1.9 0 Calma 5 Sudeste 0 -- -- 84
2020-01-12 10:00:00 -0.6 3 Sudeste 7 Sudeste 0 -- -- 88
2020-01-12 09:00:00 -0.9 2 Sudoeste 15 Sur 0 -- -- 86
2020-01-12 08:00:00 -2.3 0 Calma 2 Sudoeste 0 -- -- 93
2020-01-12 07:00:00 -2.2 0 Calma 6 Sur 0 -- -- 92
2020-01-12 06:00:00 -2.1 0 Calma 7 Sur 0 -- -- 94
2020-01-12 05:00:00 -1.4 0 Calma 9 Sur 0 -- -- 92
2020-01-12 04:00:00 -1.4 0 Calma 4 Oeste 0 -- -- 92
2020-01-12 03:00:00 -1.1 0 Calma 7 Sur 0 -- -- 92
2020-01-12 02:00:00 -0.1 2 Sur 13 Sudeste 0 -- -- 90
2020-01-12 01:00:00 0.6 4 Sur 13 Sur 0 -- -- 88
2020-01-12 00:00:00 0.2 0 Calma 3 Sudoeste 0 -- -- 91
2020-01-11 23:00:00 1 0 Calma 6 Sudeste 0 -- -- 88
2020-01-11 22:00:00 2.1 4 Sur 15 Sudeste 0 -- -- 86
2020-01-11 21:00:00 2.8 5 Sur 13 Sudeste 0 -- -- 85
2020-01-11 20:00:00 3.8 2 Sur 10 Sudeste 0 -- -- 81
2020-01-11 19:00:00 4.8 4 Sur 9 Sudeste 0 -- -- 80
2020-01-11 18:00:00 6.6 2 Sudoeste 8 Oeste 0 -- -- 74
2020-01-11 17:00:00 9.5 8 Sudoeste 14 Sudoeste 0 -- -- 62
2020-01-11 16:00:00 9.7 0 Calma 5 Noroeste 0 -- -- 63
2020-01-11 15:00:00 10 2 Noroeste 7 Norte 0 -- -- 54
2020-01-11 14:00:00 9.6 5 Norte 8 Norte 0 -- -- 65
2020-01-11 13:00:00 7.7 5 Norte 8 Norte 0 -- -- 74
2020-01-11 12:00:00 5.3 0 Calma 5 Sudeste 0 -- -- 82
2020-01-11 11:00:00 1.8 0 Calma 3 Sudeste 0 -- -- 96
2020-01-11 10:00:00 -1.2 0 Calma 4 Sudoeste 0 -- -- 100
2020-01-11 09:00:00 -1.7 0 Calma 3 Sudeste 0 -- -- 99
2020-01-11 08:00:00 -1.4 0 Calma 5 Sudeste 0 -- -- 98
2020-01-11 07:00:00 -0.6 5 Sudeste 13 Sudeste 0 -- -- 100
2020-01-11 06:00:00 -0.8 6 Sur 13 Sudeste 0 -- -- 100
2020-01-11 05:00:00 -1 0 Calma 2 Oeste 0 -- -- 99
2020-01-11 04:00:00 -0.1 2 Sudoeste 9 Sudeste 0 -- -- 99
2020-01-11 03:00:00 -0.2 2 Sur 9 Sur 0 -- -- 100
2020-01-11 02:00:00 0 2 Sur 12 Sur 0 -- -- 99
2020-01-11 01:00:00 0.9 3 Sur 9 Sur 0 -- -- 99
2020-01-11 00:00:00 1 0 Calma 10 Sudeste 0.2 -- -- 98
2020-01-10 23:00:00 1.8 5 Sur 10 Sudeste 0 -- -- 100
2020-01-10 22:00:00 1.8 0 Calma 3 Sudoeste 0 -- -- 98
2020-01-10 21:00:00 3 2 Sudoeste 4 Sudoeste 0 -- -- 97
2020-01-10 20:00:00 4.1 0 Calma 8 Sur 0 -- -- 95
2020-01-10 19:00:00 5.6 2 Oeste 7 Sur 0 -- -- 95
2020-01-10 18:00:00 6.9 2 Oeste 11 Sudoeste 0 -- -- 94
2020-01-10 17:00:00 7.8 2 Norte 10 Norte 0 -- -- 93
2020-01-10 16:00:00 8.1 5 Norte 12 Norte 0 -- -- 89
2020-01-10 15:00:00 8.1 7 Norte 12 Norte 0.2 -- -- 89
2020-01-10 14:00:00 7.9 3 Norte 8 Norte 0 -- -- 90
2020-01-10 13:00:00 7.3 0 Calma 5 Norte 0 -- -- 93
2020-01-10 12:00:00 6.2 0 Calma 4 Noroeste 0 -- -- 96
2020-01-10 11:00:00 5.1 0 Calma 4 Este 0.2 -- -- 97
2020-01-10 10:00:00 4 0 Calma 4 Norte 0 -- -- 97
2020-01-10 09:00:00 3.4 0 Calma 6 Sudeste 0 -- -- 96
2020-01-10 08:00:00 3.3 0 Calma 10 Norte 0.2 -- -- 95
2020-01-10 07:00:00 2.8 3 Sur 6 Sur 0 -- -- 93
2020-01-10 06:00:00 4 0 Calma 8 Sudoeste 0 -- -- 91
2020-01-10 05:00:00 4.3 2 Noroeste 6 Norte 0 -- -- 90
2020-01-10 04:00:00 4.2 3 Sudoeste 8 Este 0 -- -- 90
2020-01-10 03:00:00 4.8 3 Sur 11 Sudoeste 0 -- -- 87
2020-01-10 02:00:00 5.8 2 Sudoeste 11 Noroeste 0.2 -- -- 89
2020-01-10 01:00:00 6.2 3 Sudoeste 10 Sudeste 0 -- -- 84
2020-01-10 00:00:00 5.9 4 Oeste 9 Oeste 0 -- -- 83
2020-01-09 23:00:00 6 4 Oeste 16 Norte 0 -- -- 80
2020-01-09 22:00:00 5.4 3 Sur 15 Sudoeste 0 -- -- 81
2020-01-09 21:00:00 7.1 3 Sudeste 13 Sudoeste 0 -- -- 76
2020-01-09 20:00:00 6.8 2 Noroeste 8 Nordeste 0 -- -- 80
2020-01-09 19:00:00 9.2 5 Oeste 29 Este 0 -- -- 73
2020-01-09 18:00:00 11 5 Norte 22 Norte 0 -- -- 68
2020-01-09 17:00:00 11.8 8 Norte 24 Norte 0 -- -- 80
2020-01-09 16:00:00 12 7 Sudoeste 60 Norte 1.2 -- -- 84
2020-01-09 15:00:00 18.7 5 Noroeste 26 Sur 0 -- -- 44
2020-01-09 14:00:00 18.9 18 Sudeste 45 Sur 0 -- -- 49
2020-01-09 13:00:00 18.4 19 Sudeste 40 Sudeste 0 -- -- 52
2020-01-09 12:00:00 18.3 17 Sur 33 Sur 0 -- -- 53
2020-01-09 11:00:00 13.6 16 Sur 25 Sudeste 0 -- -- 70
2020-01-09 10:00:00 5.1 0 Calma 19 Sudeste 0 -- -- 92
2020-01-09 09:00:00 3.7 2 Sur 5 Sur 0 -- -- 97
2020-01-09 08:00:00 3.6 0 Calma 9 Sudeste 0 -- -- 94
2020-01-09 07:00:00 4.2 3 Sudoeste 10 Sudeste 0 -- -- 96
2020-01-09 06:00:00 3.8 2 Oeste 4 Sudoeste 0 -- -- 93
2020-01-09 05:00:00 4.2 0 Calma 3 Sudoeste 0 -- -- 89
2020-01-09 04:00:00 4.8 0 Calma 5 Oeste 0 -- -- 84
2020-01-09 03:00:00 4.4 0 Calma 14 Sudeste 0 -- -- 84
2020-01-09 02:00:00 4.6 4 Sudeste 14 Sur 0 -- -- 82
2020-01-09 01:00:00 4.2 2 Sudoeste 14 Sudeste 0 -- -- 82
2020-01-09 00:00:00 4 2 Sur 10 Sur 0 -- -- 82
2020-01-08 23:00:00 4.5 4 Sur 9 Sudeste 0 -- -- 80
2020-01-08 22:00:00 5.1 0 Calma 10 Sudeste 0 -- -- 77
2020-01-08 21:00:00 6.3 4 Sur 18 Sudeste 0 -- -- 71
2020-01-08 20:00:00 6.8 3 Sur 14 Sudeste 0 -- -- 69
2020-01-08 19:00:00 8.8 2 Sur 15 Sudeste 0 -- -- 66
2020-01-08 18:00:00 9.8 5 Sur 13 Sudeste 0 -- -- 60
2020-01-08 17:00:00 12.3 2 Oeste 10 Oeste 0 -- -- 50
2020-01-08 16:00:00 14.8 6 Oeste 13 Oeste 0 -- -- 44
2020-01-08 15:00:00 15.7 2 Norte 9 Norte 0 -- -- 42
2020-01-08 14:00:00 14.6 4 Norte 6 Norte 0 -- -- 44
2020-01-08 13:00:00 13.5 0 Calma 3 Sudeste 0 -- -- 55
2020-01-08 12:00:00 9.9 0 Calma 6 Sudeste 0 -- -- 64
2020-01-08 11:00:00 6.5 4 Sudeste 6 Este 0 -- -- 75
2020-01-08 10:00:00 3.1 0 Calma 2 Sudeste 0 -- -- 84
2020-01-08 09:00:00 3.4 0 Calma 17 Sudeste 0 -- -- 81
2020-01-08 08:00:00 3.5 7 Sur 13 Sudeste 0 -- -- 82
2020-01-08 07:00:00 3.3 0 Calma 3 Sur 0 -- -- 84
2020-01-08 06:00:00 2.2 0 Calma 4 Oeste 0 -- -- 86
2020-01-08 05:00:00 2.2 0 Calma 9 Sudeste 0 -- -- 84
2020-01-08 04:00:00 2.3 3 Sur 9 Sudeste 0 -- -- 82
2020-01-08 03:00:00 3.1 0 Calma 14 Sur 0 -- -- 79
2020-01-08 02:00:00 2.5 2 Sur 7 Sudeste 0 -- -- 83
2020-01-08 01:00:00 3.4 0 Calma 8 Sudeste 0 -- -- 79
2020-01-08 00:00:00 3.5 3 Sur 9 Sudeste 0 -- -- 81
2020-01-07 23:00:00 2.6 0 Calma 3 Oeste 0 -- -- 82
2020-01-07 22:00:00 3.5 0 Calma 12 Sudeste 0 -- -- 78
2020-01-07 21:00:00 4.6 5 Sur 12 Sur 0 -- -- 76
2020-01-07 20:00:00 5 0 Calma 10 Sudeste 0 -- -- 74
2020-01-07 19:00:00 5.5 4 Sur 8 Sudeste 0 -- -- 74
2020-01-07 18:00:00 7.5 0 Calma 5 Sudoeste 0 -- -- 65
2020-01-07 17:00:00 9.7 3 Oeste 6 Sudoeste 0 -- -- 56
2020-01-07 16:00:00 12 2 Sudoeste 9 Norte 0 -- -- 50
2020-01-07 15:00:00 12.7 4 Norte 9 Norte 0 -- -- 46
2020-01-07 14:00:00 11.3 5 Norte 10 Norte 0 -- -- 53
2020-01-07 13:00:00 9.2 3 Norte 6 Norte 0 -- -- 68
2020-01-07 12:00:00 6.5 0 Calma 3 Sudeste 0 -- -- 73
2020-01-07 11:00:00 3.2 0 Calma 4 Norte 0 -- -- 86
2020-01-07 10:00:00 -0.4 2 Sur 6 Sudeste 0 -- -- 93
2020-01-07 09:00:00 -0.7 0 Calma 12 Sudeste 0 -- -- 92
2020-01-07 08:00:00 -0.8 0 Calma 3 Sudoeste 0 -- -- 92
2020-01-07 07:00:00 -0.3 0 Calma 5 Sudoeste 0 -- -- 90
2020-01-07 06:00:00 0.4 0 Calma 16 Sudeste 0 -- -- 89
2020-01-07 05:00:00 0.4 0 Calma 12 Sur 0 -- -- 91
2020-01-07 04:00:00 -0.3 0 Calma 6 Sudeste 0 -- -- 95
2020-01-07 03:00:00 0.1 0 Calma 3 Sur 0 -- -- 93
2020-01-07 02:00:00 1 0 Calma 12 Este 0 -- -- 92
2020-01-07 01:00:00 1.7 6 Sur 14 Sur 0 -- -- 91
2020-01-07 00:00:00 1.8 5 Sur 11 Sur 0 -- -- 93
2020-01-06 23:00:00 2.4 3 Sur 14 Sudeste 0 -- -- 91
2020-01-06 22:00:00 3.3 9 Sudeste 17 Sudeste 0 -- -- 90
2020-01-06 21:00:00 2.7 3 Sur 12 Sudeste 0 -- -- 91
2020-01-06 20:00:00 3.7 3 Sur 8 Sudeste 0 -- -- 90
2020-01-06 19:00:00 5.4 2 Norte 13 Oeste 0 -- -- 83
2020-01-06 18:00:00 7.1 8 Oeste 20 Este 0 -- -- 76
2020-01-06 17:00:00 7.8 3 Sudoeste 8 Sur 0 -- -- 76
2020-01-06 16:00:00 9.2 5 Sudoeste 9 Sudoeste 0 -- -- 72
2020-01-06 15:00:00 9.8 3 Norte 10 Norte 0 -- -- 67
2020-01-06 14:00:00 9.4 0 Calma 5 Este 0 -- -- 70
2020-01-06 13:00:00 7.4 0 Calma 12 Norte 0 -- -- 75
2020-01-06 12:00:00 5.5 4 Norte 9 Norte 0 -- -- 79
2020-01-06 11:00:00 2.7 0 Calma 4 Sudeste 0 -- -- 93
2020-01-06 10:00:00 0 4 Sur 7 Sudoeste 0 -- -- 99